createdAt,value
2022-10-02T00:02:38.754Z,101487.09
2022-10-02T00:05:16.907Z,101492.62
2022-10-02T00:07:55.229Z,101486.47
2022-10-02T00:10:46.100Z,101472.22
2022-10-02T00:13:19.543Z,101475.90
2022-10-02T00:15:50.715Z,101472.44
2022-10-02T00:18:23.407Z,101482.54
2022-10-02T00:21:15.337Z,101479.17
2022-10-02T00:23:48.402Z,101468.73
2022-10-02T00:26:39.548Z,101472.31
2022-10-02T00:29:12.629Z,101469.08
2022-10-02T00:32:03.455Z,101472.26
2022-10-02T00:35:03.538Z,101469.08
2022-10-02T00:37:39.619Z,101470.16
2022-10-02T00:40:12.076Z,101468.03
2022-10-02T00:42:53.961Z,101479.86
2022-10-02T00:45:38.043Z,101478.89
2022-10-02T00:48:38.188Z,101475.02
2022-10-02T00:51:37.878Z,101466.55
2022-10-02T00:54:16.504Z,101464.68
2022-10-02T00:57:04.098Z,101460.87
2022-10-02T00:59:37.162Z,101462.75
2022-10-02T01:02:24.642Z,101464.89
2022-10-02T01:04:54.889Z,101471.73
2022-10-02T01:07:24.347Z,101471.72
2022-10-02T01:09:54.512Z,101469.09
2022-10-02T01:12:25.216Z,101470.78
2022-10-02T01:14:55.239Z,101474.47
2022-10-02T01:17:31.164Z,101466.34
2022-10-02T01:20:04.931Z,101466.86
2022-10-02T01:22:55.332Z,101463.52
2022-10-02T01:25:25.620Z,101465.59
2022-10-02T01:27:55.846Z,101464.22
2022-10-02T01:30:25.903Z,101475.07
2022-10-02T01:32:58.230Z,101472.34
2022-10-02T01:35:32.910Z,101471.52
2022-10-02T01:38:05.666Z,101474.89
2022-10-02T01:40:37.936Z,101477.61
2022-10-02T01:43:17.213Z,101474.98
2022-10-02T01:46:07.850Z,101471.93
2022-10-02T01:48:49.275Z,101477.63
2022-10-02T01:51:22.097Z,101486.30
2022-10-02T01:53:57.867Z,101490.72
2022-10-02T01:56:28.071Z,101488.30
2022-10-02T01:59:18.781Z,101502.00
2022-10-02T02:02:09.057Z,101505.59
2022-10-02T02:04:50.554Z,101492.08
2022-10-02T02:07:51.678Z,101485.44
2022-10-02T02:10:26.602Z,101486.18
2022-10-02T02:13:02.291Z,101488.81
2022-10-02T02:15:37.401Z,101490.19
2022-10-02T02:18:13.023Z,101480.16
2022-10-02T02:20:45.514Z,101479.97
2022-10-02T02:23:21.516Z,101484.40
2022-10-02T02:25:54.168Z,101491.04
2022-10-02T02:28:25.498Z,101485.87
2022-10-02T02:30:57.069Z,101489.34
2022-10-02T02:33:32.839Z,101489.47
2022-10-02T02:36:05.841Z,101491.46
2022-10-02T02:38:41.518Z,101490.09
2022-10-02T02:41:16.894Z,101488.41
2022-10-02T02:43:49.424Z,101490.39
2022-10-02T02:46:24.599Z,101484.59
2022-10-02T02:48:57.419Z,101476.05
2022-10-02T02:51:30.202Z,101486.07
2022-10-02T02:54:06.205Z,101489.22
2022-10-02T02:56:37.023Z,101484.91
2022-10-02T02:59:15.327Z,101477.52
2022-10-02T03:01:45.210Z,101498.32
2022-10-02T03:04:16.522Z,101485.65
2022-10-02T03:06:49.470Z,101493.65
2022-10-02T03:09:21.849Z,101490.81
2022-10-02T03:12:00.533Z,101495.05
2022-10-02T03:14:41.574Z,101503.36
2022-10-02T03:17:35.005Z,101490.63
2022-10-02T03:20:32.600Z,101489.66
2022-10-02T03:23:24.429Z,101485.02
2022-10-02T03:26:02.786Z,101496.83
2022-10-02T03:28:56.362Z,101493.58
2022-10-02T03:31:27.664Z,101481.52
2022-10-02T03:34:00.155Z,101481.52
2022-10-02T03:36:30.837Z,101503.37
2022-10-02T03:39:24.224Z,101489.66
2022-10-02T03:41:34.953Z,101497.67
2022-10-02T03:44:05.220Z,101499.25
2022-10-02T03:46:35.363Z,101501.58
2022-10-02T03:49:05.656Z,101502.41
2022-10-02T03:51:35.478Z,101503.69
2022-10-02T03:54:14.374Z,101503.16
2022-10-02T03:56:47.800Z,101500.63
2022-10-02T03:59:23.153Z,101491.14
2022-10-02T04:01:55.591Z,101500.81
2022-10-02T04:04:28.394Z,101492.08
2022-10-02T04:07:06.989Z,101491.46
2022-10-02T04:09:45.228Z,101499.06
2022-10-02T04:12:19.156Z,101501.25
2022-10-02T04:14:58.005Z,101503.06
2022-10-02T04:17:41.141Z,101511.92
2022-10-02T04:20:17.360Z,101511.59
2022-10-02T04:22:55.840Z,101509.60
2022-10-02T04:25:33.579Z,101516.98
2022-10-02T04:28:18.521Z,101510.03
2022-10-02T04:30:48.288Z,101504.86
2022-10-02T04:33:23.163Z,101501.36
2022-10-02T04:36:01.770Z,101505.06
2022-10-02T04:38:46.283Z,101506.02
2022-10-02T04:41:33.825Z,101502.95
2022-10-02T04:44:09.208Z,101508.12
2022-10-02T04:46:56.931Z,101506.63
2022-10-02T04:49:32.262Z,101515.73
2022-10-02T04:55:01.854Z,101525.00
2022-10-02T04:57:52.111Z,101530.69
2022-10-02T05:00:25.064Z,101537.23
2022-10-02T05:03:12.379Z,101545.37
2022-10-02T05:05:48.057Z,101545.47
2022-10-02T05:08:42.296Z,101539.56
2022-10-02T05:11:15.137Z,101539.74
2022-10-02T05:14:13.385Z,101544.59
2022-10-02T05:17:01.140Z,101550.92
2022-10-02T05:19:42.649Z,101541.23
2022-10-02T05:22:39.328Z,101539.76
2022-10-02T05:25:21.293Z,101546.69
2022-10-02T05:27:54.107Z,101545.02
2022-10-02T05:30:23.862Z,101556.73
2022-10-02T05:32:59.377Z,101558.41
2022-10-02T05:35:51.859Z,101566.43
2022-10-02T05:38:43.288Z,101564.45
2022-10-02T05:44:08.971Z,101577.00
2022-10-02T05:47:02.014Z,101584.27
2022-10-02T05:49:37.557Z,101581.62
2022-10-02T05:52:22.124Z,101583.13
2022-10-02T05:54:57.597Z,101598.19
2022-10-02T05:57:35.791Z,101593.55
2022-10-02T06:00:11.113Z,101590.27
2022-10-02T06:02:52.697Z,101593.78
2022-10-02T06:05:41.230Z,101590.63
2022-10-02T06:08:13.999Z,101601.48
2022-10-02T06:10:55.820Z,101602.30
2022-10-02T06:13:36.854Z,101599.06
2022-10-02T06:16:12.427Z,101588.39
2022-10-02T06:18:44.942Z,101594.02
2022-10-02T06:21:26.485Z,101604.14
2022-10-02T06:23:59.280Z,101608.78
2022-10-02T06:26:32.086Z,101608.78
2022-10-02T06:29:07.870Z,101625.47
2022-10-02T06:31:43.457Z,101613.05
2022-10-02T06:34:15.231Z,101616.50
2022-10-02T06:37:06.836Z,101621.87
2022-10-02T06:39:42.462Z,101619.45
2022-10-02T06:42:37.726Z,101626.55
2022-10-02T06:45:13.131Z,101618.52
2022-10-02T06:48:08.559Z,101609.98
2022-10-02T06:50:56.160Z,101609.98
2022-10-02T06:53:41.061Z,101624.45
2022-10-02T06:56:22.623Z,101615.46
2022-10-02T06:59:01.066Z,101626.02
2022-10-02T07:01:56.398Z,101626.13
2022-10-02T07:04:48.081Z,101623.37
2022-10-02T07:07:27.332Z,101636.97
2022-10-02T07:10:16.636Z,101636.97
2022-10-02T07:13:02.822Z,101641.84
2022-10-02T07:15:43.983Z,101642.38
2022-10-02T07:18:18.117Z,101643.40
2022-10-02T07:21:02.402Z,101650.36
2022-10-02T07:23:37.997Z,101658.51
2022-10-02T07:26:22.989Z,101664.22
2022-10-02T07:29:04.661Z,101661.66
2022-10-02T07:31:46.234Z,101652.25
2022-10-02T07:34:30.816Z,101655.92
2022-10-02T07:37:21.200Z,101661.22
2022-10-02T07:39:59.528Z,101669.48
2022-10-02T07:42:44.257Z,101673.27
2022-10-02T07:45:28.228Z,101677.71
2022-10-02T07:48:27.597Z,101681.09
2022-10-02T07:51:35.437Z,101677.95
2022-10-02T07:54:28.897Z,101683.09
2022-10-02T07:57:04.143Z,101688.81
2022-10-02T07:59:34.719Z,101686.09
2022-10-02T08:02:09.093Z,101688.00
2022-10-02T08:04:39.348Z,101683.99
2022-10-02T08:07:09.096Z,101693.09
2022-10-02T08:09:44.315Z,101692.94
2022-10-02T08:12:26.174Z,101697.63
2022-10-02T08:14:58.043Z,101706.52
2022-10-02T08:17:30.815Z,101706.52
2022-10-02T08:20:19.772Z,101706.83
2022-10-02T08:22:54.998Z,101712.33
2022-10-02T08:25:36.565Z,101712.92
2022-10-02T08:28:19.865Z,101720.14
2022-10-02T08:30:50.563Z,101726.83
2022-10-02T08:33:25.601Z,101732.67
2022-10-02T08:36:29.863Z,101734.23
2022-10-02T08:39:30.521Z,101729.02
2022-10-02T08:42:15.435Z,101740.73
2022-10-02T08:45:19.076Z,101744.41
2022-10-02T08:48:23.250Z,101755.43
2022-10-02T08:51:13.646Z,101753.06
2022-10-02T08:54:07.155Z,101752.02
2022-10-02T08:56:55.091Z,101753.59
2022-10-02T08:59:39.703Z,101760.33
2022-10-02T09:02:14.691Z,101758.73
2022-10-02T09:05:06.834Z,101758.20
2022-10-02T09:07:56.776Z,101755.81
2022-10-02T09:10:53.003Z,101771.80
2022-10-02T09:13:25.557Z,101771.80
2022-10-02T09:16:06.691Z,101769.50
2022-10-02T09:18:55.089Z,101766.36
2022-10-02T09:21:42.548Z,101767.78
2022-10-02T09:24:20.571Z,101773.00
2022-10-02T09:26:59.298Z,101768.17
2022-10-02T09:30:01.511Z,101770.38
2022-10-02T09:32:50.740Z,101767.95
2022-10-02T09:35:26.292Z,101765.70
2022-10-02T09:38:21.255Z,101766.63
2022-10-02T09:44:12.813Z,101771.12
2022-10-02T09:47:17.001Z,101774.88
2022-10-02T09:50:07.269Z,101779.78
2022-10-02T09:52:57.969Z,101772.66
2022-10-02T09:55:50.212Z,101781.83
2022-10-02T09:58:45.064Z,101786.37
2022-10-02T10:01:26.604Z,101794.93
2022-10-02T10:04:20.237Z,101791.64
2022-10-02T10:07:07.591Z,101774.43
2022-10-02T10:09:48.824Z,101774.43
2022-10-02T10:12:41.898Z,101784.50
2022-10-02T10:15:31.018Z,101789.86
2022-10-02T10:18:34.072Z,101798.39
2022-10-02T10:21:30.233Z,101797.88
2022-10-02T10:24:34.711Z,101798.59
2022-10-02T10:27:15.731Z,101792.31
2022-10-02T10:29:51.185Z,101792.31
2022-10-02T10:32:40.995Z,101807.25
2022-10-02T10:35:22.562Z,101802.55
2022-10-02T10:38:33.730Z,101802.55
2022-10-02T10:41:31.566Z,101797.84
2022-10-02T10:44:09.800Z,101811.67
2022-10-02T10:46:45.010Z,101806.70
2022-10-02T10:49:37.795Z,101823.33
2022-10-02T10:52:25.053Z,101825.16
2022-10-02T10:55:13.857Z,101833.28
2022-10-02T10:58:04.582Z,101837.69
2022-10-02T11:01:01.344Z,101819.70
2022-10-02T11:03:45.359Z,101819.70
2022-10-02T11:06:25.095Z,101839.05
2022-10-02T11:09:06.389Z,101838.90
2022-10-02T11:11:39.613Z,101829.28
2022-10-02T11:14:27.813Z,101847.17
2022-10-02T11:17:20.863Z,101842.45
2022-10-02T11:19:59.929Z,101848.25
2022-10-02T11:22:56.634Z,101847.44
2022-10-02T11:25:35.768Z,101852.70
2022-10-02T11:28:24.254Z,101856.66
2022-10-02T11:31:16.324Z,101858.14
2022-10-02T11:34:11.369Z,101855.12
2022-10-02T11:36:46.584Z,101864.78
2022-10-02T11:39:38.712Z,101857.61
2022-10-02T11:42:15.026Z,101869.31
2022-10-02T11:45:11.730Z,101877.66
2022-10-02T11:47:46.447Z,101870.75
2022-10-02T11:50:28.480Z,101869.83
2022-10-02T11:53:01.569Z,101868.83
2022-10-02T11:55:58.463Z,101865.45
2022-10-02T11:58:41.183Z,101863.55
2022-10-02T12:01:19.856Z,101865.40
2022-10-02T12:04:13.515Z,101870.81
2022-10-02T12:06:59.582Z,101879.20
2022-10-02T12:09:44.456Z,101872.73
2022-10-02T12:12:27.892Z,101873.23
2022-10-02T12:15:17.766Z,101876.56
2022-10-02T12:17:59.532Z,101877.22
2022-10-02T12:21:07.779Z,101874.00
2022-10-02T12:24:10.301Z,101877.56
2022-10-02T12:27:00.351Z,101885.30
2022-10-02T12:29:44.307Z,101882.69
2022-10-02T12:32:26.213Z,101890.21
2022-10-02T12:35:04.896Z,101886.30
2022-10-02T12:37:37.889Z,101887.88
2022-10-02T12:40:30.432Z,101887.88
2022-10-02T12:43:35.669Z,101886.66
2022-10-02T12:46:27.877Z,101890.09
2022-10-02T12:49:13.137Z,101885.50
2022-10-02T12:52:13.040Z,101889.23
2022-10-02T12:55:00.598Z,101887.44
2022-10-02T12:57:55.284Z,101886.80
2022-10-02T13:00:33.492Z,101885.20
2022-10-02T13:03:28.485Z,101882.98
2022-10-02T13:06:06.798Z,101879.48
2022-10-02T13:08:42.968Z,101890.77
2022-10-02T13:11:15.567Z,101886.88
2022-10-02T13:14:05.523Z,101895.09
2022-10-02T13:16:53.956Z,101903.52
2022-10-02T13:19:32.459Z,101902.14
2022-10-02T13:22:14.262Z,101901.44
2022-10-02T13:25:04.946Z,101908.13
2022-10-02T13:27:40.571Z,101907.84
2022-10-02T13:30:24.462Z,101907.58
2022-10-02T13:33:16.439Z,101910.53
2022-10-02T13:35:51.758Z,101904.74
2022-10-02T13:38:48.434Z,101904.74
2022-10-02T13:41:30.196Z,101917.78
2022-10-02T13:44:06.982Z,101922.08
2022-10-02T13:47:08.269Z,101925.78
2022-10-02T13:49:58.759Z,101930.02
2022-10-02T13:52:49.051Z,101930.30
2022-10-02T13:58:39.677Z,101927.27
2022-10-02T14:01:27.464Z,101934.55
2022-10-02T14:04:10.916Z,101937.40
2022-10-02T14:06:43.680Z,101932.48
2022-10-02T14:09:16.881Z,101939.17
2022-10-02T14:11:58.250Z,101936.27
2022-10-02T14:14:42.776Z,101935.17
2022-10-02T14:17:48.607Z,101944.20
2022-10-02T14:20:23.716Z,101939.75
2022-10-02T14:23:21.518Z,101941.64
2022-10-02T14:25:59.574Z,101934.33
2022-10-02T14:28:35.257Z,101937.23
2022-10-02T14:31:10.651Z,101947.94
2022-10-02T14:33:46.540Z,101951.73
2022-10-02T14:36:37.224Z,101949.52
2022-10-02T14:39:18.780Z,101953.17
2022-10-02T14:45:29.241Z,101958.11
2022-10-02T14:48:09.391Z,101955.34
2022-10-02T14:50:42.169Z,101957.17
2022-10-02T14:53:26.805Z,101965.34
2022-10-02T14:56:15.780Z,101966.27
2022-10-02T14:59:00.466Z,101973.19
2022-10-02T15:01:31.378Z,101966.38
2022-10-02T15:04:04.830Z,101973.30
2022-10-02T15:07:05.941Z,101968.30
2022-10-02T15:09:41.653Z,101969.97
2022-10-02T15:12:16.945Z,101982.20
2022-10-02T15:15:04.195Z,101979.45
2022-10-02T15:17:59.392Z,101981.14
2022-10-02T15:20:40.643Z,101989.48
2022-10-02T15:23:16.819Z,101995.80
2022-10-02T15:26:07.519Z,101990.28
2022-10-02T15:28:51.848Z,101988.63
2022-10-02T15:31:41.231Z,101999.49
2022-10-02T15:34:23.468Z,102000.41
2022-10-02T15:37:02.253Z,102006.36
2022-10-02T15:39:37.849Z,102005.53
2022-10-02T15:42:12.245Z,102012.86
2022-10-02T15:44:53.510Z,102016.11
2022-10-02T15:47:35.823Z,102027.15
2022-10-02T15:50:23.642Z,102021.43
2022-10-02T15:52:56.726Z,102034.28
2022-10-02T15:55:38.773Z,102020.17
2022-10-02T15:58:30.461Z,102020.17
2022-10-02T16:01:40.315Z,102045.64
2022-10-02T16:04:27.296Z,102038.48
2022-10-02T16:07:27.259Z,102040.45
2022-10-02T16:10:16.559Z,102055.42
2022-10-02T16:13:08.588Z,102054.66
2022-10-02T16:15:44.236Z,102069.20
2022-10-02T16:18:22.314Z,102072.87
2022-10-02T16:20:57.539Z,102077.33
2022-10-02T16:23:36.650Z,102082.78
2022-10-02T16:26:36.407Z,102085.27
2022-10-02T16:29:27.289Z,102090.16
2022-10-02T16:32:11.953Z,102085.61
2022-10-02T16:35:07.524Z,102098.41
2022-10-02T16:37:58.709Z,102104.25
2022-10-02T16:40:43.617Z,102110.25
2022-10-02T16:43:16.163Z,102117.64
2022-10-02T16:46:05.489Z,102123.97
2022-10-02T16:48:44.228Z,102132.87
2022-10-02T16:51:17.045Z,102130.30
2022-10-02T16:54:07.282Z,102134.34
2022-10-02T16:56:51.403Z,102148.66
2022-10-02T16:59:29.768Z,102146.91
2022-10-02T17:02:23.465Z,102152.11
2022-10-02T17:05:12.608Z,102156.77
2022-10-02T17:08:02.123Z,102172.50
2022-10-02T17:10:55.910Z,102168.05
2022-10-02T17:13:37.335Z,102180.35
2022-10-02T17:16:11.479Z,102174.89
2022-10-02T17:19:01.758Z,102179.14
2022-10-02T17:21:40.037Z,102176.78
2022-10-02T17:24:16.805Z,102180.52
2022-10-02T17:26:54.674Z,102193.41
2022-10-02T17:29:30.317Z,102198.52
2022-10-02T17:32:01.374Z,102201.22
2022-10-02T17:34:36.377Z,102210.16
2022-10-02T17:37:11.731Z,102215.72
2022-10-02T17:40:14.078Z,102212.00
2022-10-02T17:42:52.939Z,102233.80
2022-10-02T17:45:45.487Z,102233.73
2022-10-02T17:48:35.674Z,102233.73
2022-10-02T17:51:47.083Z,102243.38
2022-10-02T17:54:23.325Z,102245.17
2022-10-02T17:57:07.854Z,102251.56
2022-10-02T17:59:46.445Z,102256.05
2022-10-02T18:02:30.771Z,102259.01
2022-10-02T18:05:32.151Z,102260.91
2022-10-02T18:08:07.405Z,102269.98
2022-10-02T18:10:57.847Z,102276.00
2022-10-02T18:13:49.921Z,102282.88
2022-10-02T18:16:28.676Z,102281.72
2022-10-02T18:19:18.129Z,102288.99
2022-10-02T18:21:54.491Z,102297.89
2022-10-02T18:24:27.579Z,102305.28
2022-10-02T18:27:08.612Z,102303.18
2022-10-02T18:29:56.411Z,102305.01
2022-10-02T18:32:29.774Z,102301.81
2022-10-02T18:35:10.806Z,102314.50
2022-10-02T18:38:15.067Z,102318.86
2022-10-02T18:40:57.255Z,102322.73
2022-10-02T18:43:49.506Z,102328.81
2022-10-02T18:46:30.999Z,102328.74
2022-10-02T18:49:18.636Z,102324.65
2022-10-02T18:51:51.443Z,102327.48
2022-10-02T18:54:35.067Z,102337.06
2022-10-02T18:57:13.759Z,102330.91
2022-10-02T19:00:10.519Z,102342.88
2022-10-02T19:02:58.876Z,102340.63
2022-10-02T19:05:41.375Z,102340.95
2022-10-02T19:08:28.853Z,102344.91
2022-10-02T19:10:58.764Z,102344.91
2022-10-02T19:13:30.156Z,102351.77
2022-10-02T19:16:01.791Z,102352.13
2022-10-02T19:18:34.097Z,102361.59
2022-10-02T19:21:12.336Z,102360.64
2022-10-02T19:23:51.216Z,102355.02
2022-10-02T19:26:30.195Z,102355.44
2022-10-02T19:29:05.847Z,102366.73
2022-10-02T19:31:39.775Z,102363.33
2022-10-02T19:34:24.896Z,102363.53
2022-10-02T19:36:57.916Z,102370.95
2022-10-02T19:39:31.451Z,102369.47
2022-10-02T19:42:11.921Z,102375.29
2022-10-02T19:44:44.699Z,102382.30
2022-10-02T19:47:29.446Z,102388.69
2022-10-02T19:50:01.400Z,102390.84
2022-10-02T19:52:46.738Z,102391.56
2022-10-02T19:55:28.209Z,102397.97
2022-10-02T19:58:07.610Z,102398.95
2022-10-02T20:00:38.841Z,102398.28
2022-10-02T20:03:12.012Z,102404.67
2022-10-02T20:05:43.596Z,102406.78
2022-10-02T20:08:18.770Z,102416.05
2022-10-02T20:10:57.390Z,102427.39
2022-10-02T20:13:37.514Z,102420.89
2022-10-02T20:16:39.311Z,102420.89
2022-10-02T20:19:12.511Z,102442.09
2022-10-02T20:21:45.515Z,102442.32
2022-10-02T20:24:35.894Z,102442.32
2022-10-02T20:27:11.529Z,102444.68
2022-10-02T20:29:46.761Z,102441.29
2022-10-02T20:32:34.620Z,102439.21
2022-10-02T20:35:18.406Z,102435.99
2022-10-02T20:37:50.255Z,102438.22
2022-10-02T20:40:32.269Z,102434.73
2022-10-02T20:43:07.736Z,102440.95
2022-10-02T20:45:43.332Z,102451.09
2022-10-02T20:48:43.720Z,102451.09
2022-10-02T20:51:14.170Z,102427.34
2022-10-02T20:54:03.044Z,102427.34
2022-10-02T20:56:47.304Z,102462.27
2022-10-02T20:59:31.394Z,102466.44
2022-10-02T21:02:10.034Z,102474.09
2022-10-02T21:04:42.794Z,102479.23
2022-10-02T21:07:20.598Z,102481.33
2022-10-02T21:10:17.345Z,102483.39
2022-10-02T21:13:07.701Z,102490.91
2022-10-02T21:15:49.094Z,102497.41
2022-10-02T21:18:47.226Z,102499.50
2022-10-02T21:21:25.786Z,102501.37
2022-10-02T21:24:04.209Z,102508.04
2022-10-02T21:26:45.912Z,102512.48
2022-10-02T21:29:25.417Z,102517.64
2022-10-02T21:32:14.626Z,102522.25
2022-10-02T21:35:05.868Z,102537.97
2022-10-02T21:37:58.455Z,102541.06
2022-10-02T21:40:47.506Z,102542.45
2022-10-02T21:43:54.539Z,102547.55
2022-10-02T21:46:43.365Z,102545.86
2022-10-02T21:49:32.740Z,102536.80
2022-10-02T21:52:33.633Z,102546.72
2022-10-02T21:55:25.789Z,102550.84
2022-10-02T21:58:16.569Z,102551.86
2022-10-02T22:04:08.074Z,102553.89
2022-10-02T22:06:41.158Z,102562.27
2022-10-02T22:09:32.045Z,102563.30
2022-10-02T22:12:04.838Z,102559.70
2022-10-02T22:14:43.764Z,102565.34
2022-10-02T22:17:23.662Z,102561.55
2022-10-02T22:20:20.523Z,102566.87
2022-10-02T22:22:59.545Z,102571.50
2022-10-02T22:25:37.637Z,102570.95
2022-10-02T22:28:25.243Z,102577.77
2022-10-02T22:31:00.371Z,102586.30
2022-10-02T22:33:58.209Z,102578.28
2022-10-02T22:36:47.056Z,102579.98
2022-10-02T22:39:31.644Z,102586.67
2022-10-02T22:42:10.187Z,102581.37
2022-10-02T22:44:54.962Z,102579.31
2022-10-02T22:47:39.732Z,102583.72
2022-10-02T22:50:14.415Z,102583.73
2022-10-02T22:53:02.103Z,102587.50
2022-10-02T22:55:34.873Z,102588.31
2022-10-02T22:58:15.016Z,102592.27
2022-10-02T23:01:08.533Z,102596.52
2022-10-02T23:03:49.662Z,102595.30
2022-10-02T23:06:27.994Z,102595.31
2022-10-02T23:09:15.640Z,102597.00
2022-10-02T23:11:48.437Z,102597.00
2022-10-02T23:14:42.070Z,102586.91
2022-10-02T23:17:38.657Z,102584.86
2022-10-02T23:20:19.609Z,102585.00
2022-10-02T23:22:55.393Z,102580.05
2022-10-02T23:25:36.558Z,102586.56
2022-10-02T23:28:17.069Z,102589.61
2022-10-02T23:30:49.969Z,102588.92
2022-10-02T23:33:28.884Z,102594.72
2022-10-02T23:36:07.973Z,102591.86
2022-10-02T23:38:45.134Z,102596.73
2022-10-02T23:41:43.690Z,102600.90
2022-10-02T23:44:43.594Z,102598.98
2022-10-02T23:47:20.039Z,102610.05
2022-10-02T23:49:54.992Z,102601.69
2022-10-02T23:52:54.360Z,102604.38
2022-10-02T23:55:42.893Z,102601.13
2022-10-02T23:58:24.051Z,102591.75
